createdAt,value
2019-01-04T00:04:59.061Z,72.80
2019-01-04T00:07:32.663Z,72.70
2019-01-04T00:10:06.069Z,72.85
2019-01-04T00:12:39.597Z,72.65
2019-01-04T00:15:12.893Z,72.51
2019-01-04T00:17:46.379Z,72.36
2019-01-04T00:20:20.320Z,72.44
2019-01-04T00:22:53.563Z,72.39
2019-01-04T00:25:26.890Z,71.84
2019-01-04T00:28:00.054Z,71.84
2019-01-04T00:30:34.001Z,71.98
2019-01-04T00:33:07.728Z,71.88
2019-01-04T00:35:45.903Z,71.46
2019-01-04T00:38:19.152Z,71.52
2019-01-04T00:40:52.459Z,71.15
2019-01-04T00:43:26.405Z,71.30
2019-01-04T00:45:59.742Z,70.89
2019-01-04T00:48:32.950Z,71.08
2019-01-04T00:51:07.293Z,71.11
2019-01-04T00:53:40.698Z,70.94
2019-01-04T00:57:19.780Z,71.33
2019-01-04T01:01:01.310Z,71.18
2019-01-04T01:04:55.147Z,71.38
2019-01-04T01:08:12.344Z,71.15
2019-01-04T01:12:17.805Z,71.50
2019-01-04T01:15:47.155Z,71.40
2019-01-04T01:19:20.623Z,71.65
2019-01-04T01:22:50.091Z,71.95
2019-01-04T01:26:28.062Z,72.34
2019-01-04T01:29:58.050Z,72.70
2019-01-04T01:33:50.334Z,73.02
2019-01-04T01:37:22.595Z,73.21
2019-01-04T01:41:08.142Z,73.25
2019-01-04T01:44:39.296Z,73.41
2019-01-04T01:47:52.906Z,73.75
2019-01-04T01:51:22.697Z,74.01
2019-01-04T01:53:57.223Z,74.18
2019-01-04T01:56:30.969Z,74.14
2019-01-04T01:59:04.588Z,74.16
2019-01-04T02:01:38.149Z,74.15
2019-01-04T02:04:12.720Z,73.80
2019-01-04T02:06:46.490Z,73.86
2019-01-04T02:09:20.093Z,73.82
2019-01-04T02:11:54.350Z,73.52
2019-01-04T02:14:27.985Z,72.90
2019-01-04T02:17:01.424Z,72.58
2019-01-04T02:19:35.148Z,72.39
2019-01-04T02:22:09.675Z,72.27
2019-01-04T02:24:43.613Z,72.01
2019-01-04T02:27:16.920Z,71.93
2019-01-04T02:29:54.590Z,72.14
2019-01-04T02:32:28.590Z,72.13
2019-01-04T02:35:01.991Z,72.31
2019-01-04T02:37:35.848Z,71.89
2019-01-04T02:40:09.388Z,71.96
2019-01-04T02:42:43.299Z,72.26
2019-01-04T02:45:16.717Z,72.03
2019-01-04T02:47:50.219Z,71.75
2019-01-04T02:50:24.063Z,72.08
2019-01-04T02:52:57.832Z,71.86
2019-01-04T02:55:31.263Z,72.09
2019-01-04T02:58:04.551Z,72.27
2019-01-04T03:00:38.799Z,72.04
2019-01-04T03:03:12.340Z,71.93
2019-01-04T03:05:45.460Z,71.97
2019-01-04T03:08:20.343Z,71.74
2019-01-04T03:10:53.637Z,71.97
2019-01-04T03:13:27.108Z,72.22
2019-01-04T03:16:00.370Z,71.71
2019-01-04T03:18:34.608Z,71.94
2019-01-04T03:21:07.922Z,71.90
2019-01-04T03:23:41.746Z,71.31
2019-01-04T03:26:15.546Z,71.51
2019-01-04T03:28:49.299Z,71.66
2019-01-04T03:31:22.966Z,71.74
2019-01-04T03:33:56.520Z,71.75
2019-01-04T03:36:30.185Z,71.83
2019-01-04T03:39:06.596Z,71.58
2019-01-04T03:41:39.836Z,71.49
2019-01-04T03:44:13.322Z,71.67
2019-01-04T03:46:46.804Z,71.61
2019-01-04T03:49:22.142Z,71.65
2019-01-04T03:51:56.084Z,71.61
2019-01-04T03:54:29.665Z,71.54
2019-01-04T03:57:03.393Z,71.13
2019-01-04T03:59:36.928Z,70.86
2019-01-04T04:02:10.697Z,70.43
2019-01-04T04:04:45.372Z,70.44
2019-01-04T04:07:19.110Z,70.13
2019-01-04T04:09:52.848Z,70.21
2019-01-04T04:12:26.771Z,70.02
2019-01-04T04:15:01.173Z,69.95
2019-01-04T04:17:34.672Z,69.95
2019-01-04T04:20:09.308Z,69.80
2019-01-04T04:22:42.614Z,69.74
2019-01-04T04:25:15.836Z,69.67
2019-01-04T04:27:49.422Z,69.57
2019-01-04T04:30:24.002Z,69.34
2019-01-04T04:32:57.532Z,69.65
2019-01-04T04:35:30.912Z,69.63
2019-01-04T04:38:04.325Z,69.60
2019-01-04T04:40:37.962Z,69.57
2019-01-04T04:43:11.212Z,69.72
2019-01-04T04:45:44.742Z,69.50
2019-01-04T04:48:18.152Z,69.58
2019-01-04T04:50:51.504Z,69.26
2019-01-04T04:53:24.828Z,69.61
2019-01-04T04:55:58.525Z,69.73
2019-01-04T04:58:32.259Z,69.33
2019-01-04T05:01:05.989Z,69.67
2019-01-04T05:03:39.479Z,69.60
2019-01-04T05:06:12.871Z,69.42
2019-01-04T05:08:45.952Z,69.55
2019-01-04T05:11:19.269Z,69.55
2019-01-04T05:13:53.525Z,69.49
2019-01-04T05:16:29.866Z,69.13
2019-01-04T05:19:03.236Z,69.02
2019-01-04T05:21:36.287Z,69.14
2019-01-04T05:24:09.854Z,74.25
2019-01-04T05:26:44.814Z,73.34
2019-01-04T05:29:19.589Z,71.52
2019-01-04T05:31:52.645Z,72.35
2019-01-04T05:34:26.237Z,71.41
2019-01-04T05:36:59.623Z,69.54
2019-01-04T05:39:35.160Z,68.12
2019-01-04T05:42:08.616Z,67.32
2019-01-04T05:44:42.050Z,67.10
2019-01-04T05:47:15.550Z,67.03
2019-01-04T05:49:49.454Z,66.71
2019-01-04T05:52:22.812Z,67.51
2019-01-04T05:54:56.037Z,68.07
2019-01-04T05:57:30.301Z,68.21
2019-01-04T06:00:05.327Z,68.74
2019-01-04T06:02:40.084Z,69.52
2019-01-04T06:05:13.364Z,70.25
2019-01-04T06:07:48.073Z,71.29
2019-01-04T06:10:22.612Z,71.87
2019-01-04T06:12:56.118Z,72.85
2019-01-04T06:15:30.171Z,73.73
2019-01-04T06:18:03.785Z,74.34
2019-01-04T06:20:37.014Z,75.78
2019-01-04T06:23:10.909Z,76.93
2019-01-04T06:25:44.220Z,77.54
2019-01-04T06:28:18.306Z,78.30
2019-01-04T06:30:52.034Z,78.86
2019-01-04T06:33:25.116Z,80.06
2019-01-04T06:35:58.646Z,80.32
2019-01-04T06:38:32.457Z,80.24
2019-01-04T06:41:05.624Z,80.49
2019-01-04T06:43:40.141Z,81.48
2019-01-04T06:46:15.197Z,81.50
2019-01-04T06:48:49.596Z,81.60
2019-01-04T06:51:27.803Z,82.18
2019-01-04T06:53:59.453Z,82.46
2019-01-04T06:56:32.819Z,82.54
2019-01-04T06:59:06.556Z,82.63
2019-01-04T07:01:40.439Z,82.98
2019-01-04T07:04:13.980Z,82.92
2019-01-04T07:06:47.160Z,83.30
2019-01-04T07:09:20.436Z,83.53
2019-01-04T07:11:53.715Z,83.61
2019-01-04T07:14:26.955Z,83.73
2019-01-04T07:17:02.480Z,83.78
2019-01-04T07:19:36.721Z,83.85
2019-01-04T07:22:09.963Z,84.12
2019-01-04T07:24:43.459Z,84.18
2019-01-04T07:27:16.722Z,84.12
2019-01-04T07:29:50.073Z,84.03
2019-01-04T07:32:23.251Z,84.17
2019-01-04T07:34:57.718Z,84.17
2019-01-04T07:37:31.350Z,84.12
2019-01-04T07:40:06.652Z,83.92
2019-01-04T07:42:41.856Z,83.97
2019-01-04T07:45:15.740Z,83.19
2019-01-04T07:47:49.796Z,83.28
2019-01-04T07:50:23.521Z,83.53
2019-01-04T07:52:56.817Z,82.70
2019-01-04T07:55:30.207Z,83.21
2019-01-04T07:58:03.475Z,82.86
2019-01-04T08:00:36.870Z,82.98
2019-01-04T08:03:36.872Z,82.50
2019-01-04T08:06:10.723Z,82.77
2019-01-04T08:08:44.197Z,82.30
2019-01-04T08:11:17.630Z,82.38
2019-01-04T08:13:50.992Z,82.41
2019-01-04T08:16:24.572Z,81.95
2019-01-04T08:18:58.091Z,81.83
2019-01-04T08:21:31.542Z,82.01
2019-01-04T08:24:06.521Z,81.89
2019-01-04T08:26:39.804Z,84.07
2019-01-04T08:29:13.263Z,82.46
2019-01-04T08:31:46.634Z,80.23
2019-01-04T08:34:20.024Z,80.75
2019-01-04T08:36:53.443Z,81.03
2019-01-04T08:39:27.756Z,83.16
2019-01-04T08:42:03.182Z,78.92
2019-01-04T08:44:36.223Z,80.10
2019-01-04T08:47:09.430Z,78.41
2019-01-04T08:49:42.673Z,78.39
2019-01-04T08:52:16.708Z,78.43
2019-01-04T08:54:50.950Z,78.67
2019-01-04T08:57:24.152Z,77.74
2019-01-04T08:59:57.541Z,76.66
2019-01-04T09:02:31.350Z,79.08
2019-01-04T09:05:07.670Z,76.73
2019-01-04T09:07:40.400Z,75.20
2019-01-04T09:10:13.632Z,77.19
2019-01-04T09:12:47.214Z,78.27
2019-01-04T09:15:21.413Z,78.54
2019-01-04T09:17:54.585Z,78.68
2019-01-04T09:20:29.871Z,78.46
2019-01-04T09:23:03.375Z,79.97
2019-01-04T09:25:37.053Z,80.42
2019-01-04T09:28:11.253Z,79.19
2019-01-04T09:30:44.591Z,77.21
2019-01-04T09:33:18.342Z,76.49
2019-01-04T09:35:52.833Z,76.90
2019-01-04T09:38:26.056Z,77.63
2019-01-04T09:41:34.054Z,77.17
2019-01-04T09:44:07.812Z,77.77
2019-01-04T09:46:41.232Z,78.11
2019-01-04T09:49:14.515Z,77.76
2019-01-04T09:51:48.273Z,78.14
2019-01-04T09:54:21.746Z,78.24
2019-01-04T09:56:54.863Z,77.97
2019-01-04T09:59:28.375Z,78.52
2019-01-04T10:02:01.564Z,78.31
2019-01-04T10:04:35.083Z,78.53
2019-01-04T10:07:10.776Z,78.70
2019-01-04T10:09:46.066Z,78.53
2019-01-04T10:12:19.463Z,78.61
2019-01-04T10:14:53.145Z,78.18
2019-01-04T10:17:26.443Z,78.43
2019-01-04T10:19:59.573Z,78.36
2019-01-04T10:22:33.354Z,78.20
2019-01-04T10:25:07.070Z,77.93
2019-01-04T10:27:41.434Z,78.18
2019-01-04T10:30:27.783Z,78.61
2019-01-04T10:33:01.213Z,77.86
2019-01-04T10:35:36.043Z,77.65
2019-01-04T10:38:09.588Z,77.86
2019-01-04T10:40:43.433Z,77.20
2019-01-04T10:43:17.195Z,77.94
2019-01-04T10:45:51.803Z,77.09
2019-01-04T10:48:26.155Z,77.83
2019-01-04T10:50:59.023Z,78.39
2019-01-04T10:53:32.613Z,78.28
2019-01-04T10:56:06.128Z,78.60
2019-01-04T10:58:40.489Z,78.81
2019-01-04T11:01:15.584Z,79.05
2019-01-04T11:03:50.043Z,79.13
2019-01-04T11:06:23.374Z,79.62
2019-01-04T11:08:56.712Z,79.73
2019-01-04T11:11:30.092Z,80.54
2019-01-04T11:14:03.533Z,80.43
2019-01-04T11:16:36.924Z,80.33
2019-01-04T11:19:10.425Z,80.53
2019-01-04T11:21:43.885Z,80.58
2019-01-04T11:25:37.288Z,80.42
2019-01-04T11:28:58.698Z,80.94
2019-01-04T11:32:13.619Z,81.51
2019-01-04T11:36:07.417Z,81.69
2019-01-04T11:39:12.688Z,81.29
2019-01-04T11:42:47.630Z,81.85
2019-01-04T11:46:17.256Z,81.74
2019-01-04T11:50:03.613Z,82.50
2019-01-04T11:52:55.754Z,82.40
2019-01-04T11:55:29.234Z,82.11
2019-01-04T11:58:02.763Z,82.26
2019-01-04T12:00:36.494Z,82.67
2019-01-04T12:03:11.253Z,82.67
2019-01-04T12:05:45.374Z,82.95
2019-01-04T12:08:18.941Z,83.04
2019-01-04T12:10:53.640Z,83.37
2019-01-04T12:13:26.800Z,83.67
2019-01-04T12:16:00.231Z,83.61
2019-01-04T12:18:34.742Z,83.96
2019-01-04T12:21:09.804Z,83.62
2019-01-04T12:23:44.861Z,83.93
2019-01-04T12:26:18.985Z,84.81
2019-01-04T12:28:52.433Z,85.19
2019-01-04T12:31:25.914Z,85.92
2019-01-04T12:33:59.457Z,82.67
2019-01-04T12:36:32.878Z,82.57
2019-01-04T12:39:08.430Z,83.12
2019-01-04T12:41:41.779Z,83.61
2019-01-04T12:44:16.167Z,83.47
2019-01-04T12:46:49.686Z,84.43
2019-01-04T12:49:23.137Z,84.63
2019-01-04T12:51:56.556Z,84.62
2019-01-04T12:54:31.069Z,85.14
2019-01-04T12:57:04.336Z,84.89
2019-01-04T12:59:38.804Z,85.24
2019-01-04T13:02:13.044Z,85.24
2019-01-04T13:04:46.733Z,85.09
2019-01-04T13:07:20.013Z,85.66
2019-01-04T13:09:53.854Z,85.13
2019-01-04T13:12:28.113Z,84.74
2019-01-04T13:15:01.715Z,84.73
2019-01-04T13:17:37.044Z,84.75
2019-01-04T13:20:13.408Z,84.69
2019-01-04T13:22:48.575Z,84.88
2019-01-04T13:25:23.432Z,85.19
2019-01-04T13:27:56.935Z,84.95
2019-01-04T13:30:30.771Z,84.96
2019-01-04T13:33:04.370Z,85.51
2019-01-04T13:35:38.740Z,85.45
2019-01-04T13:38:12.660Z,85.39
2019-01-04T13:40:46.270Z,85.76
2019-01-04T13:43:20.077Z,85.59
2019-01-04T13:45:54.063Z,85.83
2019-01-04T13:48:27.731Z,85.50
2019-01-04T13:51:01.134Z,85.97
2019-01-04T13:53:35.964Z,86.08
2019-01-04T13:56:09.495Z,85.95
2019-01-04T13:58:42.921Z,86.64
2019-01-04T14:01:16.242Z,86.18
2019-01-04T14:03:49.734Z,86.29
2019-01-04T14:06:24.341Z,85.98
2019-01-04T14:08:58.074Z,85.98
2019-01-04T14:11:31.608Z,86.20
2019-01-04T14:14:05.627Z,85.67
2019-01-04T14:16:39.211Z,86.20
2019-01-04T14:19:12.594Z,86.54
2019-01-04T14:21:46.011Z,86.46
2019-01-04T14:24:19.381Z,86.73
2019-01-04T14:26:52.869Z,86.75
2019-01-04T14:29:26.340Z,86.90
2019-01-04T14:31:59.560Z,86.82
2019-01-04T14:34:33.189Z,86.87
2019-01-04T14:37:07.165Z,87.02
2019-01-04T14:39:42.815Z,87.01
2019-01-04T14:42:16.375Z,87.14
2019-01-04T14:44:50.427Z,87.09
2019-01-04T14:47:26.663Z,87.08
2019-01-04T14:50:00.160Z,87.07
2019-01-04T14:52:33.707Z,87.16
2019-01-04T14:55:07.393Z,87.09
2019-01-04T14:57:40.684Z,87.25
2019-01-04T15:00:16.339Z,87.26
2019-01-04T15:02:50.907Z,87.04
2019-01-04T15:05:24.629Z,87.53
2019-01-04T15:07:58.683Z,87.22
2019-01-04T15:10:32.284Z,87.14
2019-01-04T15:13:05.942Z,87.15
2019-01-04T15:15:40.387Z,87.11
2019-01-04T15:18:13.904Z,87.34
2019-01-04T15:20:47.615Z,87.48
2019-01-04T15:23:21.433Z,87.47
2019-01-04T15:25:55.095Z,87.45
2019-01-04T15:28:28.394Z,87.50
2019-01-04T15:31:01.864Z,87.72
2019-01-04T15:33:35.379Z,87.67
2019-01-04T15:36:09.294Z,87.77
2019-01-04T15:38:45.005Z,87.62
2019-01-04T15:41:18.744Z,87.78
2019-01-04T15:43:52.384Z,88.00
2019-01-04T15:46:26.618Z,88.05
2019-01-04T15:49:00.239Z,88.09
2019-01-04T15:51:33.930Z,88.16
2019-01-04T15:54:07.995Z,88.19
2019-01-04T15:56:42.001Z,88.07
2019-01-04T15:59:15.876Z,88.12
2019-01-04T16:01:50.038Z,88.27
2019-01-04T16:04:24.117Z,88.26
2019-01-04T16:06:58.393Z,88.29
2019-01-04T16:09:33.287Z,88.29
2019-01-04T16:12:07.067Z,88.33
2019-01-04T16:14:41.102Z,88.32
2019-01-04T16:17:15.297Z,88.33
2019-01-04T16:19:49.147Z,88.36
2019-01-04T16:22:23.112Z,88.50
2019-01-04T16:24:57.194Z,88.54
2019-01-04T16:27:31.004Z,88.46
2019-01-04T16:30:06.567Z,88.56
2019-01-04T16:32:40.549Z,88.57
2019-01-04T16:35:14.356Z,88.40
2019-01-04T16:37:48.267Z,88.59
2019-01-04T16:40:22.128Z,88.41
2019-01-04T16:42:56.279Z,88.45
2019-01-04T16:45:30.875Z,88.48
2019-01-04T16:48:04.538Z,88.43
2019-01-04T16:50:38.427Z,88.46
2019-01-04T16:53:12.309Z,88.34
2019-01-04T16:55:47.467Z,88.40
2019-01-04T16:58:21.504Z,88.53
2019-01-04T17:00:55.164Z,88.30
2019-01-04T17:03:28.847Z,88.47
2019-01-04T17:06:03.134Z,88.39
2019-01-04T17:08:38.888Z,88.54
2019-01-04T17:11:13.217Z,88.44
2019-01-04T17:13:46.864Z,88.63
2019-01-04T17:16:21.256Z,88.66
2019-01-04T17:18:55.186Z,88.61
2019-01-04T17:21:30.568Z,88.75
2019-01-04T17:24:04.963Z,88.78
2019-01-04T17:26:39.107Z,88.77
2019-01-04T17:29:13.081Z,88.68
2019-01-04T17:31:46.987Z,88.76
2019-01-04T17:34:20.858Z,88.64
2019-01-04T17:36:55.908Z,88.67
2019-01-04T17:39:29.823Z,88.52
2019-01-04T17:42:03.887Z,88.65
2019-01-04T17:44:37.789Z,88.63
2019-01-04T17:47:11.840Z,88.64
2019-01-04T17:49:45.855Z,88.65
2019-01-04T17:52:19.707Z,88.74
2019-01-04T17:54:53.642Z,88.72
2019-01-04T17:57:27.884Z,88.79
2019-01-04T18:00:01.913Z,88.85
2019-01-04T18:02:36.195Z,89.00
2019-01-04T18:05:10.228Z,88.91
2019-01-04T18:07:44.605Z,88.95
2019-01-04T18:10:18.475Z,88.99
2019-01-04T18:12:52.467Z,89.08
2019-01-04T18:15:26.634Z,89.29
2019-01-04T18:18:00.754Z,89.16
2019-01-04T18:20:35.056Z,89.17
2019-01-04T18:23:09.404Z,89.09
2019-01-04T18:25:43.629Z,89.10
2019-01-04T18:28:17.885Z,89.10
2019-01-04T18:30:51.916Z,89.11
2019-01-04T18:33:26.214Z,89.12
2019-01-04T18:36:00.984Z,89.06
2019-01-04T18:38:35.029Z,89.06
2019-01-04T18:41:09.307Z,89.04
2019-01-04T18:43:43.728Z,89.00
2019-01-04T18:46:18.283Z,88.99
2019-01-04T18:48:53.706Z,89.15
2019-01-04T18:51:27.797Z,89.08
2019-01-04T18:54:01.953Z,89.02
2019-01-04T18:56:35.997Z,89.02
2019-01-04T18:59:10.984Z,89.06
2019-01-04T19:01:45.478Z,89.04
2019-01-04T19:04:19.707Z,89.06
2019-01-04T19:06:54.494Z,89.00
2019-01-04T19:09:29.453Z,88.92
2019-01-04T19:12:03.403Z,88.87
2019-01-04T19:14:39.227Z,89.00
2019-01-04T19:17:13.868Z,88.97
2019-01-04T19:19:48.254Z,88.87
2019-01-04T19:22:22.858Z,88.89
2019-01-04T19:24:56.907Z,88.92
2019-01-04T19:27:32.062Z,88.86
2019-01-04T19:30:06.694Z,88.90
2019-01-04T19:32:41.127Z,88.79
2019-01-04T19:35:15.427Z,88.72
2019-01-04T19:37:49.666Z,88.79
2019-01-04T19:40:24.037Z,88.73
2019-01-04T19:42:59.587Z,88.79
2019-01-04T19:45:34.027Z,88.89
2019-01-04T19:48:08.869Z,89.04
2019-01-04T19:50:43.645Z,88.98
2019-01-04T19:53:18.129Z,89.06
2019-01-04T19:55:52.346Z,89.03
2019-01-04T19:58:27.036Z,89.02
2019-01-04T20:01:01.785Z,88.97
2019-01-04T20:03:36.538Z,89.09
2019-01-04T20:07:20.687Z,89.04
2019-01-04T20:11:13.783Z,89.10
2019-01-04T20:15:07.565Z,89.06
2019-01-04T20:18:03.795Z,89.02
2019-01-04T20:21:01.497Z,89.01
2019-01-04T20:24:00.539Z,89.00
2019-01-04T20:26:53.646Z,89.00
2019-01-04T20:29:58.955Z,88.98
2019-01-04T20:33:07.624Z,88.98
2019-01-04T20:36:11.595Z,88.89
2019-01-04T20:39:04.548Z,89.08
2019-01-04T20:41:56.267Z,89.15
2019-01-04T20:44:49.335Z,89.05
2019-01-04T20:47:40.954Z,89.10
2019-01-04T20:50:34.055Z,89.27
2019-01-04T20:53:30.874Z,89.33
2019-01-04T20:56:36.014Z,89.33
2019-01-04T20:59:27.463Z,89.25
2019-01-04T21:02:21.964Z,89.27
2019-01-04T21:05:13.847Z,89.31
2019-01-04T21:08:26.387Z,89.48
2019-01-04T21:11:19.488Z,89.55
2019-01-04T21:14:10.944Z,89.46
2019-01-04T21:17:13.554Z,89.58
2019-01-04T21:20:17.944Z,89.59
2019-01-04T21:23:26.797Z,89.35
2019-01-04T21:26:20.360Z,89.27
2019-01-04T21:29:16.364Z,89.21
2019-01-04T21:32:15.544Z,89.24
2019-01-04T21:35:08.001Z,89.37
2019-01-04T21:38:09.966Z,89.46
2019-01-04T21:40:57.671Z,89.48
2019-01-04T21:43:46.691Z,89.59
2019-01-04T21:46:48.603Z,89.58
2019-01-04T21:49:40.274Z,89.49
2019-01-04T21:52:23.737Z,89.51
2019-01-04T21:55:16.477Z,89.43
2019-01-04T21:58:07.543Z,89.54
2019-01-04T22:00:55.631Z,89.56
2019-01-04T22:03:51.624Z,89.66
2019-01-04T22:06:56.693Z,89.60
2019-01-04T22:09:45.388Z,89.72
2019-01-04T22:12:36.760Z,89.67
2019-01-04T22:15:35.612Z,89.87
2019-01-04T22:18:43.627Z,89.93
2019-01-04T22:21:36.052Z,89.90
2019-01-04T22:24:34.488Z,89.85
2019-01-04T22:27:39.223Z,89.78
2019-01-04T22:30:34.683Z,89.80
2019-01-04T22:33:38.953Z,89.69
2019-01-04T22:36:34.258Z,89.67
2019-01-04T22:39:28.223Z,89.63
2019-01-04T22:42:29.142Z,89.57
2019-01-04T22:45:21.165Z,89.47
2019-01-04T22:48:25.330Z,89.53
2019-01-04T22:51:20.431Z,89.50
2019-01-04T22:54:12.218Z,89.42
2019-01-04T22:57:04.057Z,89.44
2019-01-04T23:00:04.337Z,89.49
2019-01-04T23:02:56.458Z,89.47
2019-01-04T23:05:57.964Z,89.55
2019-01-04T23:08:56.852Z,89.42
2019-01-04T23:11:52.067Z,89.48
2019-01-04T23:14:48.415Z,89.59
2019-01-04T23:17:43.821Z,89.42
2019-01-04T23:20:35.855Z,89.50
2019-01-04T23:23:27.904Z,89.58
2019-01-04T23:26:19.502Z,89.52
2019-01-04T23:29:27.503Z,89.43
2019-01-04T23:32:12.438Z,89.48
2019-01-04T23:35:07.627Z,89.46
2019-01-04T23:38:03.725Z,89.37
2019-01-04T23:40:56.054Z,89.38
2019-01-04T23:44:00.423Z,89.40
2019-01-04T23:46:51.186Z,89.50
2019-01-04T23:49:47.592Z,89.62
2019-01-04T23:52:44.573Z,89.56
2019-01-04T23:55:35.502Z,89.70
2019-01-04T23:58:35.110Z,89.66
